Darstellungsparameter: Aktuell verwendete Einstellungen:
Skalierung der Graphiken ... ?
xyx+y,   Skalierungsfaktor:      Skalierung: Modus: x, Faktor: 1
Darstellungszeitraum ... ?
Vom - - bis: - -   Zeitraum: 17.01.2022 - 17.01.2022
Min/Max/Avg-Anzeige ... ?
Zeige MMA aktuell
Zeige MMA Monat
Zeige MMA alles
Zeige --A aktuell
Zeige --A Monat
Zeige --A alles
Keine MMA-Anzeige
MMA:
Average (ber die Originaldaten)
MMA-Basis: 17.01.2022 - 17.01.2022
Quicknavigation für Darstellung... ?
Tage:      1T, 2T, 3T, 5T -1T -2T -3T -5T +1T +2T +3T +5T
Wochen: 1W, 2W, 3W -1W -2W -3W +1W +2W +3W
Monate: 1M, 3M, 6M -1M -3M -6M +1M +3M +6M
Jahre:    1J, 3J, 5J, 10J -1J -3J -5J -10J +1J +3J +5J +10J
Nutze für die Darstellung ... ?
Originaldaten oder Mittelwerte auf ...
Stundenbasis Tagesbasis Wochenbasis
Monatsbasis Jahresbasis      Datenbasis: Original-Daten
Darstellen als:
Statistik (Auto) Statistik J:M      Darstellung:

Der gewünschte Datumsbereich war nicht gültig/verfügbar und wurde korrigiert....
Das angegebene Enddatum (30.05.2022 23:59:59) liegt in der Zukunft.
Das angegebene Startdatum (30.05.2022 00:00:00) liegt in der Zukunft.


Zur Graphik,    zurück zur Übersicht aller Sensoren.
 
Tabellarische Datenbersicht: ?
 
Sensor: Nr:Datum:Temp:Abs-Feuchte:Windchill:Wind:
Aussen-T/F 1 17-01-2022 01:00:00 3.4 C 5.68 g/m*3 -0.4 C 16.1 km/h
2 17-01-2022 01:05:00 3.4 C 5.68 g/m*3 -0.86 C 19.3 km/h
3 17-01-2022 01:10:00 3.5 C 5.72 g/m*3 -0.28 C 16.1 km/h
4 17-01-2022 01:15:00 3.6 C 5.76 g/m*3 -0.15 C 16.1 km/h
5 17-01-2022 01:20:00 3.6 C 5.69 g/m*3 0.11 C 14.5 km/h
6 17-01-2022 01:25:00 3.6 C 5.69 g/m*3 0.39 C 12.9 km/h
7 17-01-2022 01:30:00 3.6 C 5.69 g/m*3 0.39 C 12.9 km/h
8 17-01-2022 01:35:00 3.5 C 5.66 g/m*3 -0.51 C 17.7 km/h
9 17-01-2022 01:40:00 3.5 C 5.66 g/m*3 -0.28 C 16.1 km/h
10 17-01-2022 01:45:00 3.5 C 5.66 g/m*3 -0.02 C 14.5 km/h
11 17-01-2022 01:50:00 3.5 C 5.66 g/m*3 -0.02 C 14.5 km/h
12 17-01-2022 01:55:00 3.5 C 5.66 g/m*3 -0.02 C 14.5 km/h
13 17-01-2022 02:00:00 3.4 C 5.62 g/m*3 -0.14 C 14.5 km/h
14 17-01-2022 02:05:00 3.4 C 5.62 g/m*3 0.46 C 11.3 km/h
15 17-01-2022 02:10:00 3.4 C 5.62 g/m*3 -0.4 C 16.1 km/h
16 17-01-2022 02:15:00 3.4 C 5.62 g/m*3 0.14 C 12.9 km/h
17 17-01-2022 02:20:00 3.4 C 5.62 g/m*3 0.46 C 11.3 km/h
18 17-01-2022 02:25:00 3.5 C 5.66 g/m*3 0.27 C 12.9 km/h
19 17-01-2022 02:30:00 3.6 C 5.69 g/m*3 0.11 C 14.5 km/h
20 17-01-2022 02:35:00 3.6 C 5.69 g/m*3 0.11 C 14.5 km/h
21 17-01-2022 02:40:00 3.6 C 5.69 g/m*3 0.11 C 14.5 km/h
22 17-01-2022 02:45:00 3.6 C 5.69 g/m*3 -0.15 C 16.1 km/h
23 17-01-2022 02:50:00 3.6 C 5.69 g/m*3 0.11 C 14.5 km/h
24 17-01-2022 02:55:00 3.6 C 5.69 g/m*3 0.11 C 14.5 km/h
25 17-01-2022 03:00:00 3.6 C 5.69 g/m*3 0.11 C 14.5 km/h
Sensor: Nr:Datum:Temp:Abs-Feuchte:Windchill:Wind:
Aussen-T/F 26 17-01-2022 03:05:00 3.6 C 5.69 g/m*3 -0.15 C 16.1 km/h
27 17-01-2022 03:10:00 3.6 C 5.76 g/m*3 -0.15 C 16.1 km/h
28 17-01-2022 03:15:00 3.6 C 5.76 g/m*3 -0.15 C 16.1 km/h
29 17-01-2022 03:20:00 3.7 C 5.8 g/m*3 0.23 C 14.5 km/h
30 17-01-2022 03:25:00 3.7 C 5.8 g/m*3 0.23 C 14.5 km/h
31 17-01-2022 03:30:00 3.7 C 5.8 g/m*3 0.51 C 12.9 km/h
32 17-01-2022 03:35:00 3.6 C 5.76 g/m*3 0.11 C 14.5 km/h
33 17-01-2022 03:40:00 3.6 C 5.76 g/m*3 -0.15 C 16.1 km/h
34 17-01-2022 03:45:00 3.6 C 5.82 g/m*3 0.11 C 14.5 km/h
35 17-01-2022 03:50:00 3.6 C 5.82 g/m*3 0.39 C 12.9 km/h
36 17-01-2022 03:55:00 3.6 C 5.82 g/m*3 0.7 C 11.3 km/h
37 17-01-2022 04:00:00 3.6 C 5.82 g/m*3 0.39 C 12.9 km/h
38 17-01-2022 04:05:00 3.6 C 5.82 g/m*3 1.06 C 9.7 km/h
39 17-01-2022 04:10:00 3.6 C 5.82 g/m*3 0.7 C 11.3 km/h
40 17-01-2022 04:15:00 3.6 C 5.82 g/m*3 0.11 C 14.5 km/h
41 17-01-2022 04:20:00 3.6 C 5.82 g/m*3 0.11 C 14.5 km/h
42 17-01-2022 04:25:00 3.6 C 5.76 g/m*3 0.11 C 14.5 km/h
43 17-01-2022 04:30:00 3.5 C 5.72 g/m*3 0.27 C 12.9 km/h
44 17-01-2022 04:35:00 3.5 C 5.72 g/m*3 -0.28 C 16.1 km/h
45 17-01-2022 04:40:00 3.5 C 5.72 g/m*3 0.58 C 11.3 km/h
46 17-01-2022 04:45:00 3.5 C 5.72 g/m*3 -0.28 C 16.1 km/h
47 17-01-2022 04:50:00 3.5 C 5.72 g/m*3 -0.28 C 16.1 km/h
48 17-01-2022 04:55:00 3.6 C 5.82 g/m*3 0.11 C 14.5 km/h
49 17-01-2022 05:00:00 3.6 C 5.82 g/m*3 0.7 C 11.3 km/h
50 17-01-2022 05:05:00 3.6 C 5.82 g/m*3 0.11 C 14.5 km/h
Sensor: Nr:Datum:Temp:Abs-Feuchte:Windchill:Wind:
Aussen-T/F 51 17-01-2022 05:10:00 3.6 C 5.76 g/m*3 0.11 C 14.5 km/h
52 17-01-2022 05:15:00 3.7 C 5.8 g/m*3 0.51 C 12.9 km/h
53 17-01-2022 05:20:00 3.7 C 5.86 g/m*3 0.82 C 11.3 km/h
54 17-01-2022 05:25:00 3.7 C 5.8 g/m*3 0.82 C 11.3 km/h
55 17-01-2022 05:30:00 3.7 C 5.8 g/m*3 0.23 C 14.5 km/h
56 17-01-2022 05:35:00 3.7 C 5.8 g/m*3 1.18 C 9.7 km/h
57 17-01-2022 05:40:00 3.8 C 5.83 g/m*3 0.63 C 12.9 km/h
58 17-01-2022 05:45:00 3.8 C 5.83 g/m*3 0.94 C 11.3 km/h
59 17-01-2022 05:50:00 3.8 C 5.83 g/m*3 0.1 C 16.1 km/h
60 17-01-2022 05:55:00 3.8 C 5.83 g/m*3 0.35 C 14.5 km/h
61 17-01-2022 06:00:00 3.9 C 5.81 g/m*3 -0.01 C 17.7 km/h
62 17-01-2022 06:05:00 3.8 C 5.77 g/m*3 0.35 C 14.5 km/h
63 17-01-2022 06:10:00 3.8 C 5.77 g/m*3 0.35 C 14.5 km/h
64 17-01-2022 06:15:00 3.8 C 5.77 g/m*3 0.63 C 12.9 km/h
65 17-01-2022 06:20:00 3.8 C 5.77 g/m*3 0.63 C 12.9 km/h
66 17-01-2022 06:25:00 3.9 C 5.81 g/m*3 1.06 C 11.3 km/h
67 17-01-2022 06:30:00 3.9 C 5.81 g/m*3 0.47 C 14.5 km/h
68 17-01-2022 06:35:00 3.9 C 5.81 g/m*3 0.47 C 14.5 km/h
69 17-01-2022 06:40:00 3.9 C 5.81 g/m*3 1.06 C 11.3 km/h
70 17-01-2022 06:45:00 3.8 C 5.77 g/m*3 0.63 C 12.9 km/h
71 17-01-2022 06:50:00 3.8 C 5.77 g/m*3 0.94 C 11.3 km/h
72 17-01-2022 06:55:00 3.8 C 5.77 g/m*3 1.29 C 9.7 km/h
73 17-01-2022 07:00:00 3.8 C 5.77 g/m*3 0.94 C 11.3 km/h
74 17-01-2022 07:05:00 3.8 C 5.77 g/m*3 0.94 C 11.3 km/h
75 17-01-2022 07:10:00 3.8 C 5.77 g/m*3 1.29 C 9.7 km/h
Sensor: Nr:Datum:Temp:Abs-Feuchte:Windchill:Wind:
Aussen-T/F 76 17-01-2022 07:15:00 3.8 C 5.77 g/m*3 1.29 C 9.7 km/h
77 17-01-2022 07:20:00 3.8 C 5.77 g/m*3 0.94 C 11.3 km/h
78 17-01-2022 07:25:00 3.8 C 5.77 g/m*3 1.29 C 9.7 km/h
79 17-01-2022 07:30:00 3.7 C 5.73 g/m*3 1.18 C 9.7 km/h
80 17-01-2022 07:35:00 3.7 C 5.73 g/m*3 1.18 C 9.7 km/h
81 17-01-2022 07:40:00 3.7 C 5.73 g/m*3 0.82 C 11.3 km/h
82 17-01-2022 07:45:00 3.7 C 5.73 g/m*3 0.51 C 12.9 km/h
83 17-01-2022 07:50:00 3.7 C 5.8 g/m*3 0.51 C 12.9 km/h
84 17-01-2022 07:55:00 3.7 C 5.8 g/m*3 -0.03 C 16.1 km/h
85 17-01-2022 08:00:00 3.7 C 5.8 g/m*3 0.82 C 11.3 km/h
86 17-01-2022 08:05:00 3.7 C 5.8 g/m*3 0.23 C 14.5 km/h
87 17-01-2022 08:10:00 3.7 C 5.8 g/m*3 0.82 C 11.3 km/h
88 17-01-2022 08:15:00 3.7 C 5.8 g/m*3 0.23 C 14.5 km/h
89 17-01-2022 08:20:00 3.8 C 5.83 g/m*3 0.1 C 16.1 km/h
90 17-01-2022 08:25:00 3.8 C 5.77 g/m*3 0.63 C 12.9 km/h
91 17-01-2022 08:30:00 3.8 C 5.77 g/m*3 0.63 C 12.9 km/h
92 17-01-2022 08:35:00 3.8 C 5.83 g/m*3 0.63 C 12.9 km/h
93 17-01-2022 08:40:00 3.8 C 5.77 g/m*3 0.94 C 11.3 km/h
94 17-01-2022 08:45:00 3.8 C 5.77 g/m*3 0.35 C 14.5 km/h
95 17-01-2022 08:50:00 3.9 C 5.87 g/m*3 -0.01 C 17.7 km/h
96 17-01-2022 08:55:00 3.9 C 5.87 g/m*3 0.47 C 14.5 km/h
97 17-01-2022 09:00:00 3.9 C 5.81 g/m*3 -0.43 C 20.9 km/h
98 17-01-2022 09:05:00 4.1 C 5.89 g/m*3 1.31 C 11.3 km/h
99 17-01-2022 09:10:00 4.1 C 5.89 g/m*3 1 C 12.9 km/h
100 17-01-2022 09:15:00 4.2 C 5.93 g/m*3 0.84 C 14.5 km/h
Sensor: Nr:Datum:Temp:Abs-Feuchte:Windchill:Wind:
Aussen-T/F 101 17-01-2022 09:20:00 4.2 C 5.93 g/m*3 1.12 C 12.9 km/h
102 17-01-2022 09:25:00 4.2 C 5.86 g/m*3 1.12 C 12.9 km/h
103 17-01-2022 09:30:00 4.2 C 5.86 g/m*3 0.59 C 16.1 km/h
104 17-01-2022 09:35:00 4.3 C 5.9 g/m*3 1.24 C 12.9 km/h
105 17-01-2022 09:40:00 4.3 C 5.9 g/m*3 1.55 C 11.3 km/h
106 17-01-2022 09:45:00 4.3 C 5.9 g/m*3 1.89 C 9.7 km/h
107 17-01-2022 09:50:00 4.4 C 5.94 g/m*3 1.36 C 12.9 km/h
108 17-01-2022 09:55:00 4.5 C 5.98 g/m*3 1.48 C 12.9 km/h
109 17-01-2022 10:00:00 4.5 C 5.98 g/m*3 1.79 C 11.3 km/h
110 17-01-2022 10:05:00 4.6 C 6.02 g/m*3 1.91 C 11.3 km/h
111 17-01-2022 10:10:00 4.6 C 6.02 g/m*3 1.34 C 14.5 km/h
112 17-01-2022 10:15:00 4.6 C 6.02 g/m*3 1.09 C 16.1 km/h
113 17-01-2022 10:20:00 4.7 C 6.06 g/m*3 2.03 C 11.3 km/h
114 17-01-2022 10:25:00 4.7 C 6 g/m*3 1.73 C 12.9 km/h
115 17-01-2022 10:30:00 4.8 C 6.04 g/m*3 2.15 C 11.3 km/h
116 17-01-2022 10:35:00 4.8 C 6.1 g/m*3 1.85 C 12.9 km/h
117 17-01-2022 10:40:00 4.9 C 6.14 g/m*3 2.99 C 8.1 km/h
118 17-01-2022 10:45:00 4.9 C 6.08 g/m*3 1.97 C 12.9 km/h
119 17-01-2022 10:50:00 4.9 C 6.08 g/m*3 1.46 C 16.1 km/h
120 17-01-2022 10:55:00 5 C 6.12 g/m*3 2.09 C 12.9 km/h
121 17-01-2022 11:00:00 5.1 C 6.16 g/m*3 2.22 C 12.9 km/h
122 17-01-2022 11:05:00 5.1 C 6.16 g/m*3 2.22 C 12.9 km/h
123 17-01-2022 11:10:00 5.2 C 6.2 g/m*3 2.63 C 11.3 km/h
124 17-01-2022 11:15:00 5.2 C 6.2 g/m*3 2.07 C 14.5 km/h
125 17-01-2022 11:20:00 5.3 C 6.24 g/m*3 3.08 C 9.7 km/h
Sensor: Nr:Datum:Temp:Abs-Feuchte:Windchill:Wind:
Aussen-T/F 126 17-01-2022 11:25:00 5.3 C 6.24 g/m*3 3.46 C 8.1 km/h
127 17-01-2022 11:30:00 5.3 C 6.24 g/m*3 2.2 C 14.5 km/h
128 17-01-2022 11:35:00 5.3 C 6.24 g/m*3 3.08 C 9.7 km/h
129 17-01-2022 11:40:00 5.3 C 6.24 g/m*3 2.75 C 11.3 km/h
130 17-01-2022 11:45:00 5.3 C 6.24 g/m*3 2.75 C 11.3 km/h
131 17-01-2022 11:50:00 5.3 C 6.24 g/m*3 3.08 C 9.7 km/h
132 17-01-2022 11:55:00 5.4 C 6.28 g/m*3 2.87 C 11.3 km/h
133 17-01-2022 12:00:00 5.4 C 6.21 g/m*3 2.32 C 14.5 km/h
134 17-01-2022 12:05:00 5.6 C 6.29 g/m*3 3.11 C 11.3 km/h
135 17-01-2022 12:10:00 5.8 C 6.38 g/m*3 4.05 C 8.1 km/h
136 17-01-2022 12:15:00 5.9 C 6.42 g/m*3 3.8 C 9.7 km/h

Legende:
   Min
   Max


Maximal/Minimal-Werte vom 17.01.2022 - 17.01.2022

Sensor Min Max Avg
Temp
(Aussen-T/F)
3.4 °C
17-01-2022  01:00:00
5.9 °C
17-01-2022  12:15:00
4.01 °C
Abs-Feuchte
(Aussen-T/F)
5.62 g/m*3
17-01-2022  02:00:00
6.42 g/m*3
17-01-2022  12:15:00
5.81 g/m*3
Windchill
(Aussen-T/F)
-0.86 C
17-01-2022  01:05:00
4.05 C
17-01-2022  12:10:00
0.85 C

Die Daten stammen von einer Davis Vantage Pro 2 Wetter-Station und werden unter Linux mit der Software wview2wettercgi und aufbereitet. Alle Angaben erfolgen ohne Gewähr für ihre Vollständigkeit oder Richtigkeit.
Kontakt: Rainer Krienke krienke@uni-koblenz.de . Meine Webseiten an der Uni Koblenz oder privat.
Version: $Revision: 0.78 $